sensor_id;sensor_type;location;lat;lon;timestamp;P1;durP1;ratioP1;P2;durP2;ratioP2
31238;SDS011;17871;31.584;74.450;2023-04-28T00:29:34;43.95;;;20.60;;
31238;SDS011;17871;31.584;74.450;2023-04-28T00:46:30;53.58;;;22.85;;
31238;SDS011;17871;31.584;74.450;2023-04-28T00:56:15;62.40;;;26.90;;
31238;SDS011;17871;31.584;74.450;2023-04-28T01:08:29;52.63;;;19.05;;
31238;SDS011;17871;31.584;74.450;2023-04-28T01:20:49;58.28;;;18.13;;
31238;SDS011;17871;31.584;74.450;2023-04-28T01:44:33;55.85;;;26.20;;
31238;SDS011;17871;31.584;74.450;2023-04-28T01:47:33;51.17;;;22.98;;
31238;SDS011;17871;31.584;74.450;2023-04-28T01:53:47;45.60;;;20.50;;
31238;SDS011;17871;31.584;74.450;2023-04-28T02:02:55;46.85;;;20.50;;
31238;SDS011;17871;31.584;74.450;2023-04-28T02:08:43;44.60;;;15.88;;
31238;SDS011;17871;31.584;74.450;2023-04-28T02:45:49;73.07;;;25.48;;
31238;SDS011;17871;31.584;74.450;2023-04-28T03:02:33;76.70;;;33.22;;
31238;SDS011;17871;31.584;74.450;2023-04-28T03:12:01;64.97;;;29.67;;
31238;SDS011;17871;31.584;74.450;2023-04-28T03:31:53;34.78;;;13.50;;
31238;SDS011;17871;31.584;74.450;2023-04-28T03:40:29;34.92;;;11.95;;
31238;SDS011;17871;31.584;74.450;2023-04-28T03:46:49;33.15;;;11.18;;
31238;SDS011;17871;31.584;74.450;2023-04-28T03:52:15;32.13;;;11.30;;
31238;SDS011;17871;31.584;74.450;2023-04-28T03:58:31;35.13;;;10.98;;
31238;SDS011;17871;31.584;74.450;2023-04-28T04:11:04;30.55;;;11.23;;
31238;SDS011;17871;31.584;74.450;2023-04-28T04:20:56;30.70;;;10.13;;
31238;SDS011;17871;31.584;74.450;2023-04-28T04:26:30;24.15;;;10.15;;
31238;SDS011;17871;31.584;74.450;2023-04-28T04:32:31;48.20;;;12.68;;
31238;SDS011;17871;31.584;74.450;2023-04-28T04:35:01;61.05;;;29.95;;
31238;SDS011;17871;31.584;74.450;2023-04-28T04:53:46;40.63;;;17.08;;
31238;SDS011;17871;31.584;74.450;2023-04-28T04:56:16;34.38;;;12.57;;
31238;SDS011;17871;31.584;74.450;2023-04-28T05:05:22;32.33;;;13.13;;
31238;SDS011;17871;31.584;74.450;2023-04-28T05:08:15;33.88;;;11.90;;
31238;SDS011;17871;31.584;74.450;2023-04-28T05:13:54;43.58;;;13.05;;
31238;SDS011;17871;31.584;74.450;2023-04-28T05:20:03;36.00;;;12.25;;
31238;SDS011;17871;31.584;74.450;2023-04-28T05:50:00;28.88;;;9.60;;
31238;SDS011;17871;31.584;74.450;2023-04-28T05:52:29;29.38;;;9.45;;
31238;SDS011;17871;31.584;74.450;2023-04-28T05:54:59;60.85;;;12.23;;
31238;SDS011;17871;31.584;74.450;2023-04-28T05:57:29;37.20;;;9.68;;
31238;SDS011;17871;31.584;74.450;2023-04-28T06:00:33;33.42;;;9.43;;
31238;SDS011;17871;31.584;74.450;2023-04-28T06:03:14;50.70;;;9.52;;
31238;SDS011;17871;31.584;74.450;2023-04-28T06:08:48;28.77;;;8.38;;
31238;SDS011;17871;31.584;74.450;2023-04-28T06:39:52;28.13;;;8.85;;
31238;SDS011;17871;31.584;74.450;2023-04-28T06:42:27;24.80;;;8.73;;
31238;SDS011;17871;31.584;74.450;2023-04-28T06:51:32;24.63;;;6.93;;
31238;SDS011;17871;31.584;74.450;2023-04-28T07:00:21;23.00;;;7.53;;
31238;SDS011;17871;31.584;74.450;2023-04-28T07:05:55;22.30;;;7.05;;
31238;SDS011;17871;31.584;74.450;2023-04-28T07:15:30;22.15;;;7.63;;
31238;SDS011;17871;31.584;74.450;2023-04-28T07:27:23;29.92;;;7.57;;
31238;SDS011;17871;31.584;74.450;2023-04-28T07:29:56;24.77;;;6.15;;
31238;SDS011;17871;31.584;74.450;2023-04-28T07:35:35;25.05;;;6.57;;
31238;SDS011;17871;31.584;74.450;2023-04-28T07:44:50;22.80;;;7.00;;
31238;SDS011;17871;31.584;74.450;2023-04-28T07:47:25;36.72;;;9.90;;
31238;SDS011;17871;31.584;74.450;2023-04-28T07:50:01;32.53;;;7.35;;
31238;SDS011;17871;31.584;74.450;2023-04-28T07:52:36;33.90;;;7.43;;
31238;SDS011;17871;31.584;74.450;2023-04-28T07:55:06;42.80;;;8.85;;
31238;SDS011;17871;31.584;74.450;2023-04-28T07:57:36;28.73;;;8.15;;
31238;SDS011;17871;31.584;74.450;2023-04-28T08:00:05;35.10;;;6.95;;
31238;SDS011;17871;31.584;74.450;2023-04-28T08:02:38;38.35;;;7.82;;
31238;SDS011;17871;31.584;74.450;2023-04-28T08:05:08;36.53;;;7.95;;
31238;SDS011;17871;31.584;74.450;2023-04-28T08:07:38;32.72;;;7.88;;
31238;SDS011;17871;31.584;74.450;2023-04-28T08:10:08;38.97;;;7.25;;
31238;SDS011;17871;31.584;74.450;2023-04-28T08:12:38;29.50;;;9.27;;
31238;SDS011;17871;31.584;74.450;2023-04-28T08:15:08;45.38;;;7.32;;
31238;SDS011;17871;31.584;74.450;2023-04-28T08:17:40;23.08;;;6.57;;
31238;SDS011;17871;31.584;74.450;2023-04-28T08:20:09;28.95;;;8.00;;
31238;SDS011;17871;31.584;74.450;2023-04-28T08:22:43;33.22;;;8.10;;
31238;SDS011;17871;31.584;74.450;2023-04-28T08:25:29;30.25;;;7.93;;
31238;SDS011;17871;31.584;74.450;2023-04-28T08:27:58;19.83;;;6.97;;
31238;SDS011;17871;31.584;74.450;2023-04-28T08:30:28;21.52;;;6.43;;
31238;SDS011;17871;31.584;74.450;2023-04-28T08:32:58;22.25;;;6.50;;
31238;SDS011;17871;31.584;74.450;2023-04-28T08:35:27;32.00;;;6.65;;
31238;SDS011;17871;31.584;74.450;2023-04-28T08:37:58;30.23;;;6.28;;
31238;SDS011;17871;31.584;74.450;2023-04-28T08:40:27;24.90;;;6.90;;
31238;SDS011;17871;31.584;74.450;2023-04-28T08:42:58;34.78;;;7.30;;
31238;SDS011;17871;31.584;74.450;2023-04-28T08:45:29;21.95;;;5.95;;
31238;SDS011;17871;31.584;74.450;2023-04-28T08:48:00;31.48;;;6.32;;
31238;SDS011;17871;31.584;74.450;2023-04-28T08:50:33;16.63;;;5.57;;
31238;SDS011;17871;31.584;74.450;2023-04-28T08:53:05;27.88;;;6.32;;
31238;SDS011;17871;31.584;74.450;2023-04-28T08:55:35;19.98;;;7.40;;
31238;SDS011;17871;31.584;74.450;2023-04-28T08:58:06;19.95;;;6.82;;
31238;SDS011;17871;31.584;74.450;2023-04-28T09:00:36;18.88;;;5.57;;
31238;SDS011;17871;31.584;74.450;2023-04-28T09:03:06;23.55;;;5.65;;
31238;SDS011;17871;31.584;74.450;2023-04-28T09:05:36;27.25;;;5.38;;
31238;SDS011;17871;31.584;74.450;2023-04-28T09:08:05;23.48;;;7.25;;
31238;SDS011;17871;31.584;74.450;2023-04-28T09:10:35;47.15;;;10.93;;
31238;SDS011;17871;31.584;74.450;2023-04-28T09:13:06;21.83;;;6.93;;
31238;SDS011;17871;31.584;74.450;2023-04-28T09:15:37;24.83;;;6.32;;
31238;SDS011;17871;31.584;74.450;2023-04-28T09:18:13;38.10;;;6.70;;
31238;SDS011;17871;31.584;74.450;2023-04-28T09:20:43;14.38;;;5.90;;
31238;SDS011;17871;31.584;74.450;2023-04-28T09:23:16;30.73;;;6.35;;
31238;SDS011;17871;31.584;74.450;2023-04-28T09:26:04;25.13;;;6.35;;
31238;SDS011;17871;31.584;74.450;2023-04-28T09:28:34;20.27;;;5.68;;
31238;SDS011;17871;31.584;74.450;2023-04-28T09:31:04;24.00;;;6.80;;
31238;SDS011;17871;31.584;74.450;2023-04-28T09:33:33;25.77;;;7.15;;
31238;SDS011;17871;31.584;74.450;2023-04-28T09:36:03;18.08;;;7.00;;
31238;SDS011;17871;31.584;74.450;2023-04-28T09:38:41;32.15;;;8.35;;
31238;SDS011;17871;31.584;74.450;2023-04-28T09:41:12;15.32;;;5.72;;
31238;SDS011;17871;31.584;74.450;2023-04-28T09:43:41;25.38;;;6.03;;
31238;SDS011;17871;31.584;74.450;2023-04-28T09:46:11;34.92;;;6.32;;
31238;SDS011;17871;31.584;74.450;2023-04-28T09:48:59;14.63;;;6.07;;
31238;SDS011;17871;31.584;74.450;2023-04-28T09:51:30;35.38;;;8.48;;
31238;SDS011;17871;31.584;74.450;2023-04-28T09:54:00;28.02;;;7.45;;
31238;SDS011;17871;31.584;74.450;2023-04-28T09:56:32;27.85;;;7.97;;
31238;SDS011;17871;31.584;74.450;2023-04-28T09:59:03;203.82;;;18.95;;
31238;SDS011;17871;31.584;74.450;2023-04-28T10:01:39;111.38;;;13.80;;
31238;SDS011;17871;31.584;74.450;2023-04-28T10:04:09;71.55;;;8.63;;
31238;SDS011;17871;31.584;74.450;2023-04-28T10:06:40;82.53;;;10.80;;
31238;SDS011;17871;31.584;74.450;2023-04-28T10:09:12;47.10;;;8.77;;
31238;SDS011;17871;31.584;74.450;2023-04-28T10:11:41;77.03;;;9.00;;
31238;SDS011;17871;31.584;74.450;2023-04-28T10:14:11;84.78;;;10.55;;
31238;SDS011;17871;31.584;74.450;2023-04-28T10:16:40;83.72;;;9.35;;
31238;SDS011;17871;31.584;74.450;2023-04-28T10:19:10;52.17;;;6.68;;
31238;SDS011;17871;31.584;74.450;2023-04-28T10:21:41;52.38;;;7.78;;
31238;SDS011;17871;31.584;74.450;2023-04-28T10:24:28;52.08;;;7.07;;
31238;SDS011;17871;31.584;74.450;2023-04-28T10:27:08;90.45;;;11.38;;
31238;SDS011;17871;31.584;74.450;2023-04-28T10:29:38;36.20;;;6.68;;
31238;SDS011;17871;31.584;74.450;2023-04-28T10:32:20;53.00;;;6.88;;
31238;SDS011;17871;31.584;74.450;2023-04-28T10:35:09;38.83;;;7.38;;
31238;SDS011;17871;31.584;74.450;2023-04-28T10:43:09;33.40;;;7.72;;
31238;SDS011;17871;31.584;74.450;2023-04-28T10:46:00;23.73;;;5.93;;
31238;SDS011;17871;31.584;74.450;2023-04-28T11:03:58;18.83;;;5.18;;
31238;SDS011;17871;31.584;74.450;2023-04-28T11:06:39;23.45;;;5.68;;
31238;SDS011;17871;31.584;74.450;2023-04-28T11:12:05;25.23;;;5.43;;
31238;SDS011;17871;31.584;74.450;2023-04-28T11:14:38;23.75;;;7.82;;
31238;SDS011;17871;31.584;74.450;2023-04-28T11:17:09;47.00;;;5.93;;
31238;SDS011;17871;31.584;74.450;2023-04-28T11:19:45;29.27;;;5.40;;
31238;SDS011;17871;31.584;74.450;2023-04-28T11:22:21;22.33;;;5.05;;
31238;SDS011;17871;31.584;74.450;2023-04-28T11:24:58;26.48;;;4.93;;
31238;SDS011;17871;31.584;74.450;2023-04-28T11:27:29;35.33;;;4.22;;
31238;SDS011;17871;31.584;74.450;2023-04-28T11:30:00;21.83;;;4.88;;
31238;SDS011;17871;31.584;74.450;2023-04-28T11:32:31;39.42;;;5.85;;
31238;SDS011;17871;31.584;74.450;2023-04-28T11:35:02;28.35;;;5.80;;
31238;SDS011;17871;31.584;74.450;2023-04-28T11:37:31;19.55;;;4.35;;
31238;SDS011;17871;31.584;74.450;2023-04-28T11:40:09;25.45;;;4.90;;
31238;SDS011;17871;31.584;74.450;2023-04-28T11:42:48;36.00;;;4.55;;
31238;SDS011;17871;31.584;74.450;2023-04-28T11:45:17;21.77;;;4.50;;
31238;SDS011;17871;31.584;74.450;2023-04-28T11:47:47;25.75;;;4.68;;
31238;SDS011;17871;31.584;74.450;2023-04-28T11:50:16;142.18;;;14.15;;
31238;SDS011;17871;31.584;74.450;2023-04-28T11:53:02;30.00;;;4.65;;
31238;SDS011;17871;31.584;74.450;2023-04-28T11:55:31;22.05;;;4.57;;
31238;SDS011;17871;31.584;74.450;2023-04-28T11:58:20;20.45;;;3.88;;
31238;SDS011;17871;31.584;74.450;2023-04-28T12:01:08;32.72;;;5.05;;
31238;SDS011;17871;31.584;74.450;2023-04-28T12:03:45;33.35;;;4.72;;
31238;SDS011;17871;31.584;74.450;2023-04-28T12:06:16;24.63;;;5.47;;
31238;SDS011;17871;31.584;74.450;2023-04-28T12:08:49;17.77;;;4.65;;
31238;SDS011;17871;31.584;74.450;2023-04-28T12:11:21;26.27;;;3.72;;
31238;SDS011;17871;31.584;74.450;2023-04-28T12:14:25;25.73;;;3.85;;
31238;SDS011;17871;31.584;74.450;2023-04-28T12:16:48;27.92;;;4.68;;
31238;SDS011;17871;31.584;74.450;2023-04-28T12:19:18;23.55;;;4.53;;
31238;SDS011;17871;31.584;74.450;2023-04-28T12:24:32;24.50;;;4.38;;
31238;SDS011;17871;31.584;74.450;2023-04-28T12:27:13;27.48;;;8.02;;
31238;SDS011;17871;31.584;74.450;2023-04-28T12:29:44;35.08;;;6.10;;
31238;SDS011;17871;31.584;74.450;2023-04-28T12:32:13;18.60;;;3.65;;
31238;SDS011;17871;31.584;74.450;2023-04-28T12:34:43;31.70;;;3.45;;
31238;SDS011;17871;31.584;74.450;2023-04-28T12:37:14;25.63;;;4.10;;
31238;SDS011;17871;31.584;74.450;2023-04-28T12:39:44;27.95;;;4.00;;
31238;SDS011;17871;31.584;74.450;2023-04-28T12:42:13;27.10;;;4.82;;
31238;SDS011;17871;31.584;74.450;2023-04-28T12:44:42;24.90;;;4.53;;
31238;SDS011;17871;31.584;74.450;2023-04-28T12:47:13;27.48;;;4.03;;
31238;SDS011;17871;31.584;74.450;2023-04-28T12:49:45;24.98;;;4.40;;
31238;SDS011;17871;31.584;74.450;2023-04-28T12:52:17;23.85;;;4.20;;
31238;SDS011;17871;31.584;74.450;2023-04-28T12:54:47;24.85;;;5.43;;
31238;SDS011;17871;31.584;74.450;2023-04-28T12:57:16;16.00;;;3.20;;
31238;SDS011;17871;31.584;74.450;2023-04-28T12:59:47;16.23;;;3.05;;
31238;SDS011;17871;31.584;74.450;2023-04-28T13:02:16;16.85;;;3.13;;
31238;SDS011;17871;31.584;74.450;2023-04-28T13:04:46;30.65;;;4.53;;
31238;SDS011;17871;31.584;74.450;2023-04-28T13:07:15;16.55;;;3.38;;
31238;SDS011;17871;31.584;74.450;2023-04-28T13:09:44;18.15;;;4.50;;
31238;SDS011;17871;31.584;74.450;2023-04-28T13:12:14;23.58;;;3.88;;
31238;SDS011;17871;31.584;74.450;2023-04-28T13:14:43;17.92;;;4.80;;
31238;SDS011;17871;31.584;74.450;2023-04-28T13:17:12;33.47;;;4.93;;
31238;SDS011;17871;31.584;74.450;2023-04-28T13:19:42;28.58;;;4.82;;
31238;SDS011;17871;31.584;74.450;2023-04-28T13:22:12;36.55;;;5.80;;
31238;SDS011;17871;31.584;74.450;2023-04-28T13:24:41;33.03;;;7.30;;
31238;SDS011;17871;31.584;74.450;2023-04-28T13:27:11;32.90;;;7.28;;
31238;SDS011;17871;31.584;74.450;2023-04-28T13:29:40;29.20;;;9.20;;
31238;SDS011;17871;31.584;74.450;2023-04-28T13:32:10;37.15;;;9.98;;
31238;SDS011;17871;31.584;74.450;2023-04-28T13:34:39;38.22;;;11.07;;
31238;SDS011;17871;31.584;74.450;2023-04-28T13:37:09;31.75;;;6.63;;
31238;SDS011;17871;31.584;74.450;2023-04-28T13:39:38;22.95;;;6.97;;
31238;SDS011;17871;31.584;74.450;2023-04-28T13:42:07;34.80;;;6.90;;
31238;SDS011;17871;31.584;74.450;2023-04-28T13:44:36;20.20;;;6.75;;
31238;SDS011;17871;31.584;74.450;2023-04-28T13:47:05;37.20;;;6.75;;
31238;SDS011;17871;31.584;74.450;2023-04-28T13:49:37;33.27;;;7.30;;
31238;SDS011;17871;31.584;74.450;2023-04-28T13:52:06;26.38;;;6.15;;
31238;SDS011;17871;31.584;74.450;2023-04-28T13:54:35;36.67;;;8.73;;
31238;SDS011;17871;31.584;74.450;2023-04-28T13:57:05;23.63;;;7.75;;
31238;SDS011;17871;31.584;74.450;2023-04-28T13:59:33;22.98;;;8.27;;
31238;SDS011;17871;31.584;74.450;2023-04-28T14:02:03;22.77;;;7.68;;
31238;SDS011;17871;31.584;74.450;2023-04-28T14:04:32;40.13;;;9.10;;
31238;SDS011;17871;31.584;74.450;2023-04-28T14:07:02;47.92;;;8.80;;
31238;SDS011;17871;31.584;74.450;2023-04-28T14:09:31;42.70;;;9.60;;
31238;SDS011;17871;31.584;74.450;2023-04-28T14:12:02;45.88;;;8.80;;
31238;SDS011;17871;31.584;74.450;2023-04-28T14:14:32;35.22;;;8.57;;
31238;SDS011;17871;31.584;74.450;2023-04-28T14:17:02;37.47;;;8.02;;
31238;SDS011;17871;31.584;74.450;2023-04-28T14:19:32;35.10;;;8.05;;
31238;SDS011;17871;31.584;74.450;2023-04-28T14:22:01;32.22;;;6.95;;
31238;SDS011;17871;31.584;74.450;2023-04-28T14:24:30;47.17;;;8.27;;
31238;SDS011;17871;31.584;74.450;2023-04-28T14:27:00;33.03;;;8.18;;
31238;SDS011;17871;31.584;74.450;2023-04-28T14:29:29;31.58;;;8.75;;
31238;SDS011;17871;31.584;74.450;2023-04-28T14:31:58;33.42;;;8.57;;
31238;SDS011;17871;31.584;74.450;2023-04-28T14:34:27;35.25;;;7.60;;
31238;SDS011;17871;31.584;74.450;2023-04-28T14:36:57;27.13;;;6.80;;
31238;SDS011;17871;31.584;74.450;2023-04-28T14:39:27;23.40;;;6.45;;
31238;SDS011;17871;31.584;74.450;2023-04-28T14:41:56;38.97;;;7.53;;
31238;SDS011;17871;31.584;74.450;2023-04-28T14:44:27;29.73;;;8.65;;
31238;SDS011;17871;31.584;74.450;2023-04-28T14:46:56;39.60;;;7.63;;
31238;SDS011;17871;31.584;74.450;2023-04-28T14:49:25;28.45;;;9.07;;
31238;SDS011;17871;31.584;74.450;2023-04-28T14:51:55;25.88;;;8.45;;
31238;SDS011;17871;31.584;74.450;2023-04-28T14:54:24;27.13;;;9.02;;
31238;SDS011;17871;31.584;74.450;2023-04-28T14:56:54;43.08;;;9.82;;
31238;SDS011;17871;31.584;74.450;2023-04-28T14:59:25;35.47;;;10.32;;
31238;SDS011;17871;31.584;74.450;2023-04-28T15:01:55;33.33;;;9.60;;
31238;SDS011;17871;31.584;74.450;2023-04-28T15:04:25;42.35;;;10.13;;
31238;SDS011;17871;31.584;74.450;2023-04-28T15:06:58;39.00;;;9.27;;
31238;SDS011;17871;31.584;74.450;2023-04-28T15:09:29;61.78;;;23.25;;
31238;SDS011;17871;31.584;74.450;2023-04-28T15:11:58;33.75;;;8.27;;
31238;SDS011;17871;31.584;74.450;2023-04-28T15:14:30;40.80;;;7.28;;
31238;SDS011;17871;31.584;74.450;2023-04-28T15:16:59;34.63;;;7.72;;
31238;SDS011;17871;31.584;74.450;2023-04-28T15:19:28;30.63;;;8.35;;
31238;SDS011;17871;31.584;74.450;2023-04-28T15:21:59;31.52;;;7.80;;
31238;SDS011;17871;31.584;74.450;2023-04-28T15:24:28;21.33;;;7.20;;
31238;SDS011;17871;31.584;74.450;2023-04-28T15:26:58;23.15;;;6.35;;
31238;SDS011;17871;31.584;74.450;2023-04-28T15:29:27;29.00;;;8.88;;
31238;SDS011;17871;31.584;74.450;2023-04-28T15:31:56;29.40;;;7.55;;
31238;SDS011;17871;31.584;74.450;2023-04-28T15:34:25;43.75;;;10.38;;
31238;SDS011;17871;31.584;74.450;2023-04-28T15:36:54;35.42;;;10.02;;
31238;SDS011;17871;31.584;74.450;2023-04-28T15:39:27;27.63;;;9.10;;
31238;SDS011;17871;31.584;74.450;2023-04-28T15:41:56;30.77;;;8.13;;
31238;SDS011;17871;31.584;74.450;2023-04-28T15:44:26;32.55;;;8.30;;
31238;SDS011;17871;31.584;74.450;2023-04-28T15:46:56;50.10;;;10.10;;
31238;SDS011;17871;31.584;74.450;2023-04-28T15:49:26;37.20;;;8.23;;
31238;SDS011;17871;31.584;74.450;2023-04-28T15:51:55;31.58;;;7.28;;
31238;SDS011;17871;31.584;74.450;2023-04-28T15:57:13;39.03;;;7.95;;
31238;SDS011;17871;31.584;74.450;2023-04-28T15:59:42;48.47;;;8.07;;
31238;SDS011;17871;31.584;74.450;2023-04-28T16:02:11;29.05;;;8.48;;
31238;SDS011;17871;31.584;74.450;2023-04-28T16:04:41;34.60;;;9.05;;
31238;SDS011;17871;31.584;74.450;2023-04-28T16:07:10;32.83;;;7.70;;
31238;SDS011;17871;31.584;74.450;2023-04-28T16:09:39;31.65;;;7.95;;
31238;SDS011;17871;31.584;74.450;2023-04-28T16:12:09;23.70;;;7.10;;
31238;SDS011;17871;31.584;74.450;2023-04-28T16:14:38;20.40;;;6.90;;
31238;SDS011;17871;31.584;74.450;2023-04-28T16:17:07;26.17;;;7.65;;
31238;SDS011;17871;31.584;74.450;2023-04-28T16:19:36;23.45;;;7.85;;
31238;SDS011;17871;31.584;74.450;2023-04-28T16:22:05;30.25;;;9.57;;
31238;SDS011;17871;31.584;74.450;2023-04-28T16:24:34;37.53;;;12.50;;
31238;SDS011;17871;31.584;74.450;2023-04-28T16:27:09;33.65;;;10.88;;
31238;SDS011;17871;31.584;74.450;2023-04-28T16:29:39;36.00;;;9.80;;
31238;SDS011;17871;31.584;74.450;2023-04-28T16:32:08;41.50;;;13.93;;
31238;SDS011;17871;31.584;74.450;2023-04-28T16:34:38;64.90;;;25.60;;
31238;SDS011;17871;31.584;74.450;2023-04-28T16:37:07;67.30;;;20.58;;
31238;SDS011;17871;31.584;74.450;2023-04-28T16:39:38;47.45;;;14.35;;
31238;SDS011;17871;31.584;74.450;2023-04-28T16:42:07;44.28;;;12.32;;
31238;SDS011;17871;31.584;74.450;2023-04-28T16:44:36;46.47;;;12.63;;
31238;SDS011;17871;31.584;74.450;2023-04-28T16:47:05;71.85;;;22.83;;
31238;SDS011;17871;31.584;74.450;2023-04-28T16:49:35;53.78;;;16.55;;
31238;SDS011;17871;31.584;74.450;2023-04-28T16:52:04;68.35;;;15.40;;
31238;SDS011;17871;31.584;74.450;2023-04-28T16:54:33;39.95;;;13.88;;
31238;SDS011;17871;31.584;74.450;2023-04-28T16:57:02;42.08;;;13.70;;
31238;SDS011;17871;31.584;74.450;2023-04-28T16:59:32;59.13;;;17.55;;
31238;SDS011;17871;31.584;74.450;2023-04-28T17:02:01;75.35;;;23.95;;
31238;SDS011;17871;31.584;74.450;2023-04-28T17:04:33;55.47;;;17.58;;
31238;SDS011;17871;31.584;74.450;2023-04-28T17:07:04;46.42;;;16.88;;
31238;SDS011;17871;31.584;74.450;2023-04-28T17:09:33;85.68;;;21.25;;
31238;SDS011;17871;31.584;74.450;2023-04-28T17:12:02;92.82;;;24.85;;
31238;SDS011;17871;31.584;74.450;2023-04-28T17:14:32;105.20;;;21.05;;
31238;SDS011;17871;31.584;74.450;2023-04-28T17:17:02;100.90;;;24.63;;
31238;SDS011;17871;31.584;74.450;2023-04-28T17:19:31;109.53;;;22.65;;
31238;SDS011;17871;31.584;74.450;2023-04-28T17:22:01;108.80;;;27.38;;
31238;SDS011;17871;31.584;74.450;2023-04-28T17:24:30;122.90;;;23.60;;
31238;SDS011;17871;31.584;74.450;2023-04-28T17:26:59;141.48;;;26.60;;
31238;SDS011;17871;31.584;74.450;2023-04-28T17:29:28;107.10;;;25.48;;
31238;SDS011;17871;31.584;74.450;2023-04-28T17:31:58;117.25;;;29.20;;
31238;SDS011;17871;31.584;74.450;2023-04-28T17:34:28;115.75;;;25.42;;
31238;SDS011;17871;31.584;74.450;2023-04-28T17:36:58;86.40;;;20.75;;
31238;SDS011;17871;31.584;74.450;2023-04-28T17:39:29;91.72;;;20.40;;
31238;SDS011;17871;31.584;74.450;2023-04-28T17:41:59;59.67;;;17.60;;
31238;SDS011;17871;31.584;74.450;2023-04-28T17:44:29;59.60;;;16.13;;
31238;SDS011;17871;31.584;74.450;2023-04-28T17:46:58;52.00;;;17.95;;
31238;SDS011;17871;31.584;74.450;2023-04-28T17:49:28;44.33;;;16.73;;
31238;SDS011;17871;31.584;74.450;2023-04-28T17:51:57;56.95;;;13.88;;
31238;SDS011;17871;31.584;74.450;2023-04-28T17:54:26;44.92;;;12.88;;
31238;SDS011;17871;31.584;74.450;2023-04-28T17:57:00;44.13;;;13.50;;
31238;SDS011;17871;31.584;74.450;2023-04-28T17:59:29;56.03;;;13.00;;
31238;SDS011;17871;31.584;74.450;2023-04-28T18:01:59;59.75;;;13.35;;
31238;SDS011;17871;31.584;74.450;2023-04-28T18:04:28;54.38;;;14.43;;
31238;SDS011;17871;31.584;74.450;2023-04-28T18:06:57;48.03;;;13.25;;
31238;SDS011;17871;31.584;74.450;2023-04-28T18:09:26;52.22;;;13.02;;
31238;SDS011;17871;31.584;74.450;2023-04-28T18:11:57;52.10;;;13.70;;
31238;SDS011;17871;31.584;74.450;2023-04-28T18:14:30;47.95;;;12.32;;
31238;SDS011;17871;31.584;74.450;2023-04-28T18:16:59;47.97;;;13.13;;
31238;SDS011;17871;31.584;74.450;2023-04-28T18:19:28;49.75;;;15.02;;
31238;SDS011;17871;31.584;74.450;2023-04-28T18:21:58;93.15;;;31.38;;
31238;SDS011;17871;31.584;74.450;2023-04-28T18:24:27;112.85;;;37.63;;
31238;SDS011;17871;31.584;74.450;2023-04-28T18:26:57;98.35;;;37.28;;
31238;SDS011;17871;31.584;74.450;2023-04-28T18:29:26;104.63;;;40.60;;
31238;SDS011;17871;31.584;74.450;2023-04-28T18:31:55;69.03;;;24.30;;
31238;SDS011;17871;31.584;74.450;2023-04-28T18:34:24;46.72;;;18.92;;
31238;SDS011;17871;31.584;74.450;2023-04-28T18:36:54;44.40;;;15.48;;
31238;SDS011;17871;31.584;74.450;2023-04-28T18:39:24;33.08;;;12.30;;
31238;SDS011;17871;31.584;74.450;2023-04-28T18:41:53;38.95;;;9.20;;
31238;SDS011;17871;31.584;74.450;2023-04-28T18:44:22;44.15;;;10.43;;
31238;SDS011;17871;31.584;74.450;2023-04-28T18:46:52;31.90;;;10.25;;
31238;SDS011;17871;31.584;74.450;2023-04-28T18:49:21;32.08;;;10.43;;
31238;SDS011;17871;31.584;74.450;2023-04-28T18:51:52;67.60;;;12.70;;
31238;SDS011;17871;31.584;74.450;2023-04-28T18:54:24;23.60;;;8.02;;
31238;SDS011;17871;31.584;74.450;2023-04-28T18:56:57;38.30;;;13.13;;
31238;SDS011;17871;31.584;74.450;2023-04-28T18:59:26;80.22;;;26.83;;
31238;SDS011;17871;31.584;74.450;2023-04-28T19:01:55;74.57;;;31.02;;
31238;SDS011;17871;31.584;74.450;2023-04-28T19:04:27;73.85;;;28.80;;
31238;SDS011;17871;31.584;74.450;2023-04-28T19:06:58;121.28;;;57.03;;
31238;SDS011;17871;31.584;74.450;2023-04-28T19:09:27;59.42;;;18.60;;
31238;SDS011;17871;31.584;74.450;2023-04-28T19:11:56;36.53;;;12.00;;
31238;SDS011;17871;31.584;74.450;2023-04-28T19:17:09;54.58;;;23.50;;
31238;SDS011;17871;31.584;74.450;2023-04-28T19:25:11;104.97;;;40.42;;
31238;SDS011;17871;31.584;74.450;2023-04-28T19:30:41;54.70;;;18.58;;
31238;SDS011;17871;31.584;74.450;2023-04-28T19:33:10;65.13;;;20.00;;
31238;SDS011;17871;31.584;74.450;2023-04-28T19:35:39;56.78;;;14.98;;
31238;SDS011;17871;31.584;74.450;2023-04-28T19:38:09;48.88;;;12.57;;
31238;SDS011;17871;31.584;74.450;2023-04-28T19:43:14;36.80;;;12.13;;
31238;SDS011;17871;31.584;74.450;2023-04-28T19:45:44;36.22;;;12.63;;
31238;SDS011;17871;31.584;74.450;2023-04-28T19:48:14;38.72;;;12.43;;
31238;SDS011;17871;31.584;74.450;2023-04-28T19:50:45;63.53;;;18.92;;
31238;SDS011;17871;31.584;74.450;2023-04-28T19:53:15;39.00;;;14.30;;
31238;SDS011;17871;31.584;74.450;2023-04-28T19:55:44;32.05;;;13.60;;
31238;SDS011;17871;31.584;74.450;2023-04-28T19:58:13;41.92;;;15.80;;
31238;SDS011;17871;31.584;74.450;2023-04-28T20:00:46;53.30;;;15.75;;
31238;SDS011;17871;31.584;74.450;2023-04-28T20:03:41;36.75;;;13.63;;
31238;SDS011;17871;31.584;74.450;2023-04-28T20:06:46;36.53;;;14.88;;
31238;SDS011;17871;31.584;74.450;2023-04-28T20:10:13;46.95;;;15.15;;
31238;SDS011;17871;31.584;74.450;2023-04-28T20:13:44;58.50;;;15.77;;
31238;SDS011;17871;31.584;74.450;2023-04-28T20:16:43;50.38;;;14.20;;
31238;SDS011;17871;31.584;74.450;2023-04-28T20:19:16;53.17;;;13.55;;
31238;SDS011;17871;31.584;74.450;2023-04-28T20:25:35;24.55;;;10.55;;
31238;SDS011;17871;31.584;74.450;2023-04-28T20:28:15;40.47;;;12.90;;
31238;SDS011;17871;31.584;74.450;2023-04-28T20:30:58;42.60;;;14.77;;
31238;SDS011;17871;31.584;74.450;2023-04-28T20:36:50;48.92;;;17.13;;
31238;SDS011;17871;31.584;74.450;2023-04-28T20:39:33;41.90;;;16.35;;
31238;SDS011;17871;31.584;74.450;2023-04-28T20:42:08;54.60;;;16.58;;
31238;SDS011;17871;31.584;74.450;2023-04-28T20:44:40;40.45;;;14.77;;
31238;SDS011;17871;31.584;74.450;2023-04-28T20:47:19;52.28;;;17.23;;
31238;SDS011;17871;31.584;74.450;2023-04-28T20:50:01;35.63;;;12.50;;
31238;SDS011;17871;31.584;74.450;2023-04-28T20:52:38;35.72;;;14.23;;
31238;SDS011;17871;31.584;74.450;2023-04-28T20:55:30;40.07;;;13.37;;
31238;SDS011;17871;31.584;74.450;2023-04-28T20:58:12;50.50;;;17.25;;
31238;SDS011;17871;31.584;74.450;2023-04-28T21:00:50;52.97;;;15.02;;
31238;SDS011;17871;31.584;74.450;2023-04-28T21:03:31;74.25;;;30.15;;
31238;SDS011;17871;31.584;74.450;2023-04-28T21:06:09;35.15;;;13.55;;
31238;SDS011;17871;31.584;74.450;2023-04-28T21:08:49;32.60;;;11.80;;
31238;SDS011;17871;31.584;74.450;2023-04-28T21:11:27;42.47;;;13.88;;
31238;SDS011;17871;31.584;74.450;2023-04-28T21:14:07;34.53;;;13.50;;
31238;SDS011;17871;31.584;74.450;2023-04-28T21:16:50;70.20;;;25.77;;
31238;SDS011;17871;31.584;74.450;2023-04-28T21:19:25;152.00;;;60.28;;
31238;SDS011;17871;31.584;74.450;2023-04-28T21:22:11;142.15;;;64.05;;
31238;SDS011;17871;31.584;74.450;2023-04-28T21:24:50;109.13;;;50.05;;